createdAt,value
2018-10-16T00:00:21.411Z,18.80
2018-10-16T00:02:50.308Z,18.80
2018-10-16T00:05:18.851Z,18.80
2018-10-16T00:07:47.122Z,18.70
2018-10-16T00:10:19.570Z,18.70
2018-10-16T00:12:47.841Z,18.70
2018-10-16T00:15:16.424Z,18.60
2018-10-16T00:17:44.603Z,18.60
2018-10-16T00:20:12.810Z,18.60
2018-10-16T00:22:41.185Z,18.40
2018-10-16T00:25:13.680Z,18.30
2018-10-16T00:27:41.981Z,18.30
2018-10-16T00:30:10.461Z,18.30
2018-10-16T00:32:39.239Z,18.40
2018-10-16T00:35:07.637Z,18.40
2018-10-16T00:37:36.345Z,18.40
2018-10-16T00:40:04.723Z,18.30
2018-10-16T00:42:32.871Z,18.30
2018-10-16T00:45:00.996Z,18.30
2018-10-16T00:47:29.332Z,18.30
2018-10-16T00:49:57.764Z,18.20
2018-10-16T00:52:26.396Z,18.20
2018-10-16T00:54:54.762Z,18.10
2018-10-16T00:57:22.822Z,18.10
2018-10-16T00:59:51.315Z,18.10
2018-10-16T01:02:19.705Z,18.10
2018-10-16T01:04:48.246Z,18.00
2018-10-16T01:07:16.512Z,18.00
2018-10-16T01:09:44.860Z,18.00
2018-10-16T01:12:13.118Z,17.80
2018-10-16T01:14:41.559Z,17.80
2018-10-16T01:17:09.980Z,17.80
2018-10-16T01:19:38.538Z,17.80
2018-10-16T01:22:06.758Z,17.80
2018-10-16T01:24:34.852Z,17.80
2018-10-16T01:27:03.039Z,17.80
2018-10-16T01:29:31.747Z,17.70
2018-10-16T01:31:59.947Z,17.70
2018-10-16T01:34:28.366Z,17.70
2018-10-16T01:36:56.499Z,17.60
2018-10-16T01:39:24.802Z,17.60
2018-10-16T01:41:53.122Z,17.60
2018-10-16T01:44:21.403Z,17.60
2018-10-16T01:46:49.765Z,17.50
2018-10-16T01:49:18.171Z,17.50
2018-10-16T01:51:46.363Z,17.40
2018-10-16T01:54:14.790Z,17.40
2018-10-16T01:56:42.887Z,17.30
2018-10-16T01:59:11.292Z,17.30
2018-10-16T02:01:39.545Z,17.30
2018-10-16T02:04:08.006Z,17.30
2018-10-16T02:06:36.409Z,17.20
2018-10-16T02:09:07.348Z,17.20
2018-10-16T02:11:35.655Z,17.20
2018-10-16T02:14:04.073Z,17.20
2018-10-16T02:16:32.425Z,17.20
2018-10-16T02:19:00.602Z,17.20
2018-10-16T02:21:28.888Z,17.20
2018-10-16T02:23:57.633Z,17.20
2018-10-16T02:26:26.000Z,17.20
2018-10-16T02:28:54.280Z,17.10
2018-10-16T02:31:23.122Z,17.10
2018-10-16T02:33:51.509Z,17.10
2018-10-16T02:36:19.613Z,17.10
2018-10-16T02:38:47.992Z,17.10
2018-10-16T02:41:16.399Z,17.10
2018-10-16T02:43:44.794Z,17.10
2018-10-16T02:46:13.128Z,16.90
2018-10-16T02:48:41.270Z,16.90
2018-10-16T02:51:09.392Z,16.90
2018-10-16T02:53:37.709Z,16.90
2018-10-16T02:56:06.001Z,16.90
2018-10-16T02:58:34.119Z,16.90
2018-10-16T03:01:02.247Z,16.90
2018-10-16T03:03:34.653Z,16.90
2018-10-16T03:06:03.054Z,16.90
2018-10-16T03:08:31.421Z,16.90
2018-10-16T03:10:59.866Z,16.90
2018-10-16T03:13:27.985Z,16.80
2018-10-16T03:15:56.131Z,16.80
2018-10-16T03:18:24.589Z,16.80
2018-10-16T03:20:53.165Z,16.80
2018-10-16T03:23:21.596Z,16.80
2018-10-16T03:25:50.161Z,16.70
2018-10-16T03:28:18.846Z,16.70
2018-10-16T03:30:47.131Z,16.70
2018-10-16T03:33:15.244Z,16.60
2018-10-16T03:35:43.351Z,16.60
2018-10-16T03:38:11.535Z,16.60
2018-10-16T03:40:39.608Z,16.50
2018-10-16T03:43:08.217Z,16.50
2018-10-16T03:45:36.899Z,16.50
2018-10-16T03:48:06.869Z,16.50
2018-10-16T03:50:35.280Z,16.50
2018-10-16T03:53:03.665Z,16.40
2018-10-16T03:55:31.847Z,16.40
2018-10-16T03:57:59.923Z,16.40
2018-10-16T04:00:28.119Z,16.40
2018-10-16T04:02:56.255Z,16.40
2018-10-16T04:05:24.863Z,16.40
2018-10-16T04:07:53.363Z,16.30
2018-10-16T04:10:21.650Z,16.30
2018-10-16T04:12:49.995Z,16.30
2018-10-16T04:15:18.357Z,16.30
2018-10-16T04:17:46.430Z,16.30
2018-10-16T04:20:14.630Z,16.30
2018-10-16T04:22:42.702Z,16.30
2018-10-16T04:25:10.782Z,16.20
2018-10-16T04:27:39.132Z,16.20
2018-10-16T04:30:07.519Z,16.20
2018-10-16T04:32:35.662Z,16.20
2018-10-16T04:35:09.489Z,16.20
2018-10-16T04:37:37.564Z,16.20
2018-10-16T04:40:06.756Z,16.20
2018-10-16T04:42:34.843Z,16.10
2018-10-16T04:45:03.223Z,16.10
2018-10-16T04:47:31.685Z,16.10
2018-10-16T04:49:59.930Z,16.10
2018-10-16T04:52:28.918Z,16.10
2018-10-16T04:54:57.040Z,16.10
2018-10-16T04:57:25.139Z,16.00
2018-10-16T04:59:53.357Z,16.00
2018-10-16T05:02:21.585Z,16.00
2018-10-16T05:04:49.897Z,16.00
2018-10-16T05:07:18.196Z,16.00
2018-10-16T05:09:46.369Z,16.00
2018-10-16T05:12:14.746Z,16.00
2018-10-16T05:14:42.899Z,16.00
2018-10-16T05:17:11.043Z,16.00
2018-10-16T05:19:39.934Z,16.00
2018-10-16T05:22:08.094Z,15.90
2018-10-16T05:24:36.415Z,15.90
2018-10-16T05:27:04.762Z,15.90
2018-10-16T05:29:33.011Z,15.90
2018-10-16T05:32:01.681Z,15.80
2018-10-16T05:34:30.032Z,15.80
2018-10-16T05:36:58.515Z,15.80
2018-10-16T05:39:26.709Z,15.80
2018-10-16T05:41:55.237Z,15.80
2018-10-16T05:44:23.568Z,15.80
2018-10-16T05:46:52.084Z,15.80
2018-10-16T05:49:20.320Z,15.80
2018-10-16T05:51:48.614Z,15.80
2018-10-16T05:54:17.152Z,15.80
2018-10-16T05:56:45.416Z,15.80
2018-10-16T05:59:13.615Z,15.80
2018-10-16T06:01:42.152Z,15.70
2018-10-16T06:04:10.635Z,15.70
2018-10-16T06:06:39.016Z,15.70
2018-10-16T06:09:07.579Z,15.70
2018-10-16T06:11:35.835Z,15.70
2018-10-16T06:14:03.942Z,15.70
2018-10-16T06:16:32.128Z,15.70
2018-10-16T06:25:46.930Z,15.70
2018-10-16T06:28:18.583Z,15.70
2018-10-16T06:30:46.789Z,15.70
2018-10-16T06:33:16.523Z,15.70
2018-10-16T06:35:44.618Z,15.70
2018-10-16T06:38:12.724Z,15.70
2018-10-16T06:40:40.887Z,15.80
2018-10-16T06:43:08.989Z,15.80
2018-10-16T06:45:37.196Z,15.90
2018-10-16T06:48:05.886Z,15.90
2018-10-16T06:50:33.886Z,16.00
2018-10-16T06:53:03.035Z,16.00
2018-10-16T06:55:31.168Z,16.00
2018-10-16T06:57:59.331Z,16.00
2018-10-16T07:00:27.605Z,16.10
2018-10-16T07:02:55.771Z,16.10
2018-10-16T07:05:24.151Z,16.20
2018-10-16T07:07:52.263Z,16.20
2018-10-16T07:10:20.535Z,16.30
2018-10-16T07:12:48.684Z,16.30
2018-10-16T07:15:16.928Z,16.30
2018-10-16T07:17:45.139Z,16.40
2018-10-16T07:20:13.631Z,16.40
2018-10-16T07:22:41.776Z,16.50
2018-10-16T07:25:10.366Z,16.50
2018-10-16T07:27:38.532Z,16.60
2018-10-16T07:30:09.212Z,16.60
2018-10-16T07:32:37.305Z,16.60
2018-10-16T07:35:06.847Z,16.70
2018-10-16T07:37:35.223Z,16.80
2018-10-16T07:40:03.751Z,16.80
2018-10-16T07:42:31.895Z,16.90
2018-10-16T07:45:00.032Z,16.90
2018-10-16T07:47:28.147Z,16.90
2018-10-16T07:49:56.383Z,17.00
2018-10-16T07:52:24.469Z,17.00
2018-10-16T07:54:52.619Z,17.10
2018-10-16T07:57:20.897Z,17.10
2018-10-16T07:59:48.959Z,17.20
2018-10-16T08:02:17.115Z,17.20
2018-10-16T08:04:45.204Z,17.20
2018-10-16T08:07:13.318Z,17.30
2018-10-16T08:09:41.444Z,17.40
2018-10-16T08:12:10.066Z,17.40
2018-10-16T08:14:38.642Z,17.50
2018-10-16T08:17:07.065Z,17.50
2018-10-16T08:19:35.339Z,17.60
2018-10-16T08:22:03.496Z,17.60
2018-10-16T08:24:31.593Z,17.70
2018-10-16T08:26:59.739Z,17.70
2018-10-16T08:29:27.743Z,17.70
2018-10-16T08:31:55.847Z,17.80
2018-10-16T08:34:23.955Z,17.90
2018-10-16T08:36:52.136Z,18.00
2018-10-16T08:39:27.637Z,18.00
2018-10-16T08:44:18.218Z,18.10
2018-10-16T08:46:57.998Z,18.10
2018-10-16T08:49:38.471Z,18.20
2018-10-16T08:52:06.683Z,18.20
2018-10-16T08:54:34.791Z,18.30
2018-10-16T08:57:02.967Z,18.30
2018-10-16T08:59:31.107Z,18.40
2018-10-16T09:01:59.239Z,18.40
2018-10-16T09:04:27.330Z,18.50
2018-10-16T09:06:55.487Z,18.60
2018-10-16T09:09:23.501Z,18.60
2018-10-16T09:11:51.651Z,18.70
2018-10-16T09:14:19.807Z,18.80
2018-10-16T09:16:47.915Z,18.90
2018-10-16T09:19:16.039Z,19.00
2018-10-16T09:21:44.152Z,19.20
2018-10-16T09:24:12.241Z,19.30
2018-10-16T09:26:40.352Z,19.40
2018-10-16T09:29:08.501Z,19.50
2018-10-16T09:31:36.623Z,19.60
2018-10-16T09:34:04.719Z,19.60
2018-10-16T09:36:32.830Z,19.70
2018-10-16T09:39:00.970Z,19.80
2018-10-16T09:41:29.084Z,19.90
2018-10-16T09:43:57.191Z,20.00
2018-10-16T09:46:25.343Z,20.10
2018-10-16T09:48:53.446Z,20.20
2018-10-16T09:51:21.534Z,20.30
2018-10-16T09:53:50.348Z,20.40
2018-10-16T09:56:18.427Z,20.50
2018-10-16T09:58:46.584Z,20.70
2018-10-16T10:01:20.201Z,20.80
2018-10-16T10:03:48.302Z,20.90
2018-10-16T10:06:16.435Z,21.00
2018-10-16T10:08:44.534Z,21.20
2018-10-16T10:11:12.713Z,21.30
2018-10-16T10:13:40.787Z,21.40
2018-10-16T10:16:08.938Z,21.50
2018-10-16T10:18:37.271Z,21.60
2018-10-16T10:21:05.392Z,21.70
2018-10-16T10:23:33.507Z,21.80
2018-10-16T10:26:01.663Z,21.90
2018-10-16T10:28:29.767Z,22.00
2018-10-16T10:30:57.863Z,22.20
2018-10-16T10:33:26.104Z,22.20
2018-10-16T10:35:54.193Z,22.30
2018-10-16T10:38:22.352Z,22.50
2018-10-16T10:40:50.455Z,22.50
2018-10-16T10:43:18.560Z,22.60
2018-10-16T10:45:46.928Z,22.70
2018-10-16T10:48:15.027Z,22.80
2018-10-16T10:50:43.432Z,22.80
2018-10-16T10:53:11.237Z,22.90
2018-10-16T10:55:39.374Z,22.90
2018-10-16T10:58:07.675Z,23.00
2018-10-16T11:00:35.832Z,23.00
2018-10-16T11:03:04.371Z,23.10
2018-10-16T11:05:32.358Z,23.10
2018-10-16T11:08:00.521Z,23.20
2018-10-16T11:10:28.695Z,23.20
2018-10-16T11:12:56.810Z,23.30
2018-10-16T11:15:24.915Z,23.40
2018-10-16T11:17:53.124Z,23.50
2018-10-16T11:22:55.858Z,23.60
2018-10-16T11:25:23.952Z,23.70
2018-10-16T11:27:52.438Z,23.80
2018-10-16T11:30:20.705Z,23.90
2018-10-16T11:32:48.719Z,24.00
2018-10-16T11:35:16.823Z,24.10
2018-10-16T11:37:44.925Z,24.10
2018-10-16T11:40:13.214Z,24.10
2018-10-16T11:42:42.031Z,24.20
2018-10-16T11:45:17.972Z,24.20
2018-10-16T11:47:46.925Z,24.20
2018-10-16T11:50:15.289Z,24.30
2018-10-16T11:52:43.451Z,24.30
2018-10-16T11:55:11.591Z,24.40
2018-10-16T11:57:39.691Z,24.50
2018-10-16T12:00:12.028Z,24.60
2018-10-16T12:02:40.214Z,24.70
2018-10-16T12:05:08.297Z,24.80
2018-10-16T12:07:36.378Z,24.90
2018-10-16T12:10:04.923Z,24.90
2018-10-16T12:12:33.043Z,25.00
2018-10-16T12:15:01.180Z,25.20
2018-10-16T12:18:06.026Z,25.30
2018-10-16T12:20:38.308Z,25.30
2018-10-16T12:23:06.408Z,25.50
2018-10-16T12:25:34.518Z,25.60
2018-10-16T12:28:02.635Z,25.60
2018-10-16T12:30:30.711Z,25.70
2018-10-16T12:32:58.827Z,25.80
2018-10-16T12:35:26.942Z,25.80
2018-10-16T12:37:55.043Z,25.90
2018-10-16T12:40:23.204Z,25.90
2018-10-16T12:42:51.377Z,26.00
2018-10-16T12:45:19.514Z,26.10
2018-10-16T12:47:49.509Z,26.20
2018-10-16T12:50:17.638Z,26.20
2018-10-16T12:52:47.425Z,26.20
2018-10-16T12:55:16.361Z,26.30
2018-10-16T12:57:44.599Z,26.30
2018-10-16T13:00:12.755Z,26.40
2018-10-16T13:02:40.800Z,26.40
2018-10-16T13:05:08.952Z,26.50
2018-10-16T13:07:38.089Z,26.50
2018-10-16T13:10:08.984Z,26.50
2018-10-16T13:12:37.080Z,26.60
2018-10-16T13:15:06.548Z,26.70
2018-10-16T13:17:34.648Z,26.70
2018-10-16T13:20:10.463Z,26.70
2018-10-16T13:22:39.205Z,26.80
2018-10-16T13:25:08.526Z,26.80
2018-10-16T13:27:36.779Z,26.90
2018-10-16T13:30:05.575Z,26.90
2018-10-16T13:32:33.603Z,27.00
2018-10-16T13:35:01.764Z,27.00
2018-10-16T13:37:29.848Z,27.00
2018-10-16T13:39:58.102Z,27.10
2018-10-16T13:42:26.200Z,27.10
2018-10-16T13:44:54.288Z,27.10
2018-10-16T13:47:22.400Z,27.20
2018-10-16T13:49:50.531Z,27.20
2018-10-16T13:52:18.704Z,27.20
2018-10-16T13:54:46.811Z,27.10
2018-10-16T13:57:14.927Z,27.10
2018-10-16T13:59:43.033Z,27.10
2018-10-16T14:02:11.215Z,27.10
2018-10-16T14:04:39.279Z,27.00
2018-10-16T14:07:07.367Z,27.00
2018-10-16T14:09:35.539Z,27.00
2018-10-16T14:12:03.701Z,27.00
2018-10-16T14:14:31.815Z,27.00
2018-10-16T14:16:59.961Z,26.90
2018-10-16T14:19:28.030Z,26.90
2018-10-16T14:21:56.220Z,26.90
2018-10-16T14:24:24.265Z,26.90
2018-10-16T14:26:52.350Z,26.80
2018-10-16T14:29:20.440Z,26.90
2018-10-16T14:31:48.586Z,26.80
2018-10-16T14:34:16.719Z,26.80
2018-10-16T14:36:44.745Z,26.80
2018-10-16T14:39:12.988Z,26.80
2018-10-16T14:41:41.106Z,26.80
2018-10-16T14:44:09.748Z,26.70
2018-10-16T14:46:37.731Z,26.70
2018-10-16T14:49:05.826Z,26.70
2018-10-16T14:51:34.907Z,26.70
2018-10-16T14:54:03.226Z,26.70
2018-10-16T14:56:32.176Z,26.70
2018-10-16T14:59:00.298Z,26.50
2018-10-16T15:01:28.641Z,26.50
2018-10-16T15:03:56.767Z,26.50
2018-10-16T15:06:24.911Z,26.60
2018-10-16T15:08:53.049Z,26.60
2018-10-16T15:11:21.189Z,26.60
2018-10-16T15:13:49.317Z,26.50
2018-10-16T15:16:17.488Z,26.50
2018-10-16T15:18:45.463Z,26.50
2018-10-16T15:21:13.531Z,26.50
2018-10-16T15:23:41.645Z,26.40
2018-10-16T15:26:09.749Z,26.40
2018-10-16T15:28:37.919Z,26.30
2018-10-16T15:31:06.081Z,26.30
2018-10-16T15:33:34.159Z,26.30
2018-10-16T15:36:02.345Z,26.20
2018-10-16T15:38:30.423Z,26.20
2018-10-16T15:40:58.527Z,26.20
2018-10-16T15:43:26.642Z,26.10
2018-10-16T15:45:54.780Z,26.10
2018-10-16T15:48:22.801Z,26.10
2018-10-16T15:50:50.928Z,25.90
2018-10-16T15:53:19.016Z,25.90
2018-10-16T15:55:47.149Z,25.90
2018-10-16T15:58:15.292Z,25.90
2018-10-16T16:00:43.339Z,25.90
2018-10-16T16:03:11.439Z,25.90
2018-10-16T16:05:39.800Z,25.90
2018-10-16T16:08:07.933Z,25.80
2018-10-16T16:10:35.968Z,25.60
2018-10-16T16:13:07.430Z,25.60
2018-10-16T16:15:35.663Z,25.60
2018-10-16T16:18:03.860Z,25.60
2018-10-16T16:20:31.837Z,25.60
2018-10-16T16:23:00.074Z,25.60
2018-10-16T16:25:28.215Z,25.50
2018-10-16T16:27:56.357Z,25.40
2018-10-16T16:30:24.407Z,25.40
2018-10-16T16:32:52.512Z,25.30
2018-10-16T16:35:20.596Z,25.30
2018-10-16T16:37:48.751Z,25.20
2018-10-16T16:40:16.839Z,25.10
2018-10-16T16:42:44.940Z,25.10
2018-10-16T16:45:13.196Z,25.00
2018-10-16T16:47:41.311Z,24.90
2018-10-16T16:50:10.710Z,24.70
2018-10-16T16:52:39.000Z,24.70
2018-10-16T16:55:08.407Z,24.60
2018-10-16T16:57:36.619Z,24.50
2018-10-16T17:00:04.715Z,24.50
2018-10-16T17:02:32.869Z,24.40
2018-10-16T17:05:01.064Z,24.30
2018-10-16T17:07:29.220Z,24.20
2018-10-16T17:09:57.421Z,24.10
2018-10-16T17:12:25.663Z,24.00
2018-10-16T17:14:53.787Z,23.90
2018-10-16T17:17:21.911Z,23.80
2018-10-16T17:19:50.047Z,23.70
2018-10-16T17:22:18.179Z,23.60
2018-10-16T17:24:46.523Z,23.50
2018-10-16T17:27:14.521Z,23.30
2018-10-16T17:29:43.011Z,23.20
2018-10-16T17:32:11.502Z,23.10
2018-10-16T17:34:39.601Z,23.10
2018-10-16T17:37:07.737Z,23.00
2018-10-16T17:39:35.867Z,23.00
2018-10-16T17:42:04.027Z,22.90
2018-10-16T17:44:32.148Z,22.80
2018-10-16T17:47:00.266Z,22.70
2018-10-16T17:49:28.380Z,22.70
2018-10-16T17:58:42.955Z,22.50
2018-10-16T18:01:12.325Z,22.30
2018-10-16T18:03:41.088Z,22.20
2018-10-16T18:06:09.195Z,22.00
2018-10-16T18:08:37.380Z,21.90
2018-10-16T18:11:05.579Z,21.80
2018-10-16T18:13:33.720Z,21.80
2018-10-16T18:16:01.894Z,21.80
2018-10-16T18:18:29.979Z,21.70
2018-10-16T18:20:58.091Z,21.70
2018-10-16T18:23:26.235Z,21.70
2018-10-16T18:25:54.403Z,21.60
2018-10-16T18:28:22.535Z,21.50
2018-10-16T18:30:50.620Z,21.50
2018-10-16T18:33:18.724Z,21.40
2018-10-16T18:35:46.819Z,21.40
2018-10-16T18:38:14.933Z,21.30
2018-10-16T18:40:43.031Z,21.30
2018-10-16T18:43:11.128Z,21.20
2018-10-16T18:45:39.221Z,21.00
2018-10-16T18:48:07.352Z,21.00
2018-10-16T18:50:35.450Z,21.00
2018-10-16T18:53:03.558Z,21.00
2018-10-16T18:55:31.671Z,21.00
2018-10-16T18:57:59.771Z,20.90
2018-10-16T19:00:27.878Z,20.90
2018-10-16T19:02:55.991Z,20.90
2018-10-16T19:05:24.050Z,20.80
2018-10-16T19:07:52.175Z,20.80
2018-10-16T19:10:20.276Z,20.70
2018-10-16T19:12:48.406Z,20.70
2018-10-16T19:15:17.343Z,20.60
2018-10-16T19:17:45.961Z,20.60
2018-10-16T19:20:15.158Z,20.50
2018-10-16T19:22:44.053Z,20.50
2018-10-16T19:25:13.343Z,20.30
2018-10-16T19:27:41.506Z,20.30
2018-10-16T19:30:10.735Z,20.30
2018-10-16T19:32:38.975Z,20.20
2018-10-16T19:35:07.697Z,20.20
2018-10-16T19:37:35.853Z,20.20
2018-10-16T19:40:03.899Z,20.20
2018-10-16T19:42:32.116Z,20.20
2018-10-16T19:45:00.260Z,20.10
2018-10-16T19:47:28.399Z,20.10
2018-10-16T19:49:56.524Z,20.00
2018-10-16T19:52:24.621Z,20.00
2018-10-16T19:54:52.718Z,19.90
2018-10-16T19:57:20.849Z,19.90
2018-10-16T19:59:49.215Z,19.90
2018-10-16T20:02:17.331Z,19.80
2018-10-16T20:04:45.436Z,19.80
2018-10-16T20:07:13.533Z,19.70
2018-10-16T20:09:41.724Z,19.70
2018-10-16T20:12:09.790Z,19.60
2018-10-16T20:14:37.875Z,19.60
2018-10-16T20:17:05.995Z,19.50
2018-10-16T20:19:34.159Z,19.50
2018-10-16T20:22:02.347Z,19.40
2018-10-16T20:24:30.426Z,19.40
2018-10-16T20:26:58.519Z,19.40
2018-10-16T20:29:27.291Z,19.40
2018-10-16T20:31:55.387Z,19.30
2018-10-16T20:34:23.470Z,19.20
2018-10-16T20:36:51.549Z,19.20
2018-10-16T20:39:19.775Z,19.20
2018-10-16T20:41:47.960Z,19.10
2018-10-16T20:44:16.122Z,19.10
2018-10-16T20:46:44.215Z,19.10
2018-10-16T20:49:12.371Z,18.90
2018-10-16T20:51:40.414Z,18.90
2018-10-16T20:54:08.530Z,18.90
2018-10-16T20:56:36.636Z,18.90
2018-10-16T20:59:05.129Z,18.90
2018-10-16T21:01:33.227Z,18.90
2018-10-16T21:04:01.380Z,18.90
2018-10-16T21:06:29.639Z,18.90
2018-10-16T21:08:57.591Z,18.90
2018-10-16T21:11:25.858Z,18.80
2018-10-16T21:13:54.002Z,18.80
2018-10-16T21:16:22.087Z,18.80
2018-10-16T21:18:50.175Z,18.80
2018-10-16T21:21:18.254Z,18.80
2018-10-16T21:23:46.390Z,18.70
2018-10-16T21:26:14.463Z,18.70
2018-10-16T21:28:42.565Z,18.70
2018-10-16T21:31:10.758Z,18.60
2018-10-16T21:33:38.773Z,18.60
2018-10-16T21:36:06.858Z,18.60
2018-10-16T21:38:37.262Z,18.60
2018-10-16T21:41:05.474Z,18.60
2018-10-16T21:43:33.575Z,18.60
2018-10-16T21:46:01.764Z,18.50
2018-10-16T21:48:29.965Z,18.50
2018-10-16T21:50:58.118Z,18.50
2018-10-16T21:53:26.310Z,18.50
2018-10-16T21:55:54.386Z,18.50
2018-10-16T21:58:22.458Z,18.50
2018-10-16T22:00:56.020Z,18.50
2018-10-16T22:03:24.106Z,18.40
2018-10-16T22:05:52.296Z,18.50
2018-10-16T22:08:20.706Z,18.50
2018-10-16T22:10:48.861Z,18.40
2018-10-16T22:13:16.950Z,18.40
2018-10-16T22:15:45.052Z,18.40
2018-10-16T22:18:13.182Z,18.40
2018-10-16T22:20:41.325Z,18.40
2018-10-16T22:23:09.520Z,18.40
2018-10-16T22:25:37.510Z,18.40
2018-10-16T22:28:05.617Z,18.30
2018-10-16T22:30:33.822Z,18.30
2018-10-16T22:33:01.930Z,18.30
2018-10-16T22:35:30.061Z,18.30
2018-10-16T22:37:58.152Z,18.30
2018-10-16T22:40:26.259Z,18.30
2018-10-16T22:42:54.419Z,18.30
2018-10-16T22:45:22.526Z,18.30
2018-10-16T22:47:50.626Z,18.30
2018-10-16T22:50:18.794Z,18.30
2018-10-16T22:52:46.902Z,18.20
2018-10-16T22:55:15.044Z,18.30
2018-10-16T22:57:43.102Z,18.20
2018-10-16T23:00:17.050Z,18.10
2018-10-16T23:02:46.174Z,18.00
2018-10-16T23:05:14.397Z,18.10
2018-10-16T23:07:43.256Z,18.10
2018-10-16T23:10:11.533Z,18.10
2018-10-16T23:12:39.634Z,18.20
2018-10-16T23:15:08.689Z,18.20
2018-10-16T23:17:36.793Z,18.20
2018-10-16T23:20:05.930Z,18.20
2018-10-16T23:22:34.034Z,18.20
2018-10-16T23:25:02.254Z,18.30
2018-10-16T23:27:30.336Z,18.30
2018-10-16T23:29:58.413Z,18.30
2018-10-16T23:32:26.559Z,18.30
2018-10-16T23:34:54.665Z,18.30
2018-10-16T23:37:22.734Z,18.40
2018-10-16T23:39:51.005Z,18.40
2018-10-16T23:42:19.078Z,18.40
2018-10-16T23:44:47.152Z,18.40
2018-10-16T23:47:15.254Z,18.40
2018-10-16T23:49:43.362Z,18.40
2018-10-16T23:52:11.443Z,18.40
2018-10-16T23:54:39.554Z,18.50
2018-10-16T23:57:07.632Z,18.40
2018-10-16T23:59:35.718Z,18.40
